Leslie, Missouri
Current Conditions -  °F | °C
As of 8:35 AM on Thursday 30 Oct 2014 (Local Time) from KFYG Reporting Station
Broken Clouds Broken Clouds  
Wind Chill: 39°   Ceiling: 9500
Heat Index: 39°   Visibility: 10mi
Dew Point: 37°   Wind: 3mph
Humidity: 93%   Direction: 150°SSE
Pressure: 30.13"   Gusts: NA
Location:  38.42°N, 91.23°W
Report Text: KFYG 301335Z AUTO 15003KT 10SM BKN095 04/03 A3013 RMK AO2
Loading
Personal Weather Stations






























Interactive Weather Map New forecast layout! Learn more

10-Day Weather Forecast

Advertisements
Track Severe Weather on mobile